sensor_id;sensor_type;location;lat;lon;timestamp;temperature;humidity
77865;DHT22;67061;48.524;9.040;2023-03-18T00:00:46;6.50;88.10
77865;DHT22;67061;48.524;9.040;2023-03-18T00:03:13;6.50;88.40
77865;DHT22;67061;48.524;9.040;2023-03-18T00:05:47;6.40;87.20
77865;DHT22;67061;48.524;9.040;2023-03-18T00:08:21;6.40;87.60
77865;DHT22;67061;48.524;9.040;2023-03-18T00:10:50;6.40;88.60
77865;DHT22;67061;48.524;9.040;2023-03-18T00:13:16;6.50;89.30
77865;DHT22;67061;48.524;9.040;2023-03-18T00:15:44;6.50;88.00
77865;DHT22;67061;48.524;9.040;2023-03-18T00:18:12;6.40;88.20
77865;DHT22;67061;48.524;9.040;2023-03-18T00:20:40;6.40;88.80
77865;DHT22;67061;48.524;9.040;2023-03-18T00:23:08;6.40;89.20
77865;DHT22;67061;48.524;9.040;2023-03-18T00:25:36;6.40;89.10
77865;DHT22;67061;48.524;9.040;2023-03-18T00:28:04;6.40;88.90
77865;DHT22;67061;48.524;9.040;2023-03-18T00:30:32;6.40;89.10
77865;DHT22;67061;48.524;9.040;2023-03-18T00:32:59;6.30;89.40
77865;DHT22;67061;48.524;9.040;2023-03-18T00:35:27;6.30;89.60
77865;DHT22;67061;48.524;9.040;2023-03-18T00:37:56;6.30;88.50
77865;DHT22;67061;48.524;9.040;2023-03-18T00:40:23;6.20;89.50
77865;DHT22;67061;48.524;9.040;2023-03-18T00:42:55;6.30;88.90
77865;DHT22;67061;48.524;9.040;2023-03-18T00:45:33;6.20;89.40
77865;DHT22;67061;48.524;9.040;2023-03-18T00:48:02;6.20;88.70
77865;DHT22;67061;48.524;9.040;2023-03-18T00:50:31;6.20;88.40
77865;DHT22;67061;48.524;9.040;2023-03-18T00:52:58;6.10;89.50
77865;DHT22;67061;48.524;9.040;2023-03-18T00:55:25;6.10;89.30
77865;DHT22;67061;48.524;9.040;2023-03-18T00:57:53;6.10;89.90
77865;DHT22;67061;48.524;9.040;2023-03-18T01:00:21;6.10;89.30
77865;DHT22;67061;48.524;9.040;2023-03-18T01:02:48;6.10;90.00
77865;DHT22;67061;48.524;9.040;2023-03-18T01:05:15;6.10;90.10
77865;DHT22;67061;48.524;9.040;2023-03-18T01:07:44;6.10;90.20
77865;DHT22;67061;48.524;9.040;2023-03-18T01:10:12;6.10;89.80
77865;DHT22;67061;48.524;9.040;2023-03-18T01:12:40;6.10;89.00
77865;DHT22;67061;48.524;9.040;2023-03-18T01:15:09;6.10;90.00
77865;DHT22;67061;48.524;9.040;2023-03-18T01:17:37;6.10;90.40
77865;DHT22;67061;48.524;9.040;2023-03-18T01:20:05;6.20;89.90
77865;DHT22;67061;48.524;9.040;2023-03-18T01:22:32;6.20;89.60
77865;DHT22;67061;48.524;9.040;2023-03-18T01:25:01;6.20;90.20
77865;DHT22;67061;48.524;9.040;2023-03-18T01:27:28;6.20;90.10
77865;DHT22;67061;48.524;9.040;2023-03-18T01:29:55;6.20;89.80
77865;DHT22;67061;48.524;9.040;2023-03-18T01:32:22;6.10;90.10
77865;DHT22;67061;48.524;9.040;2023-03-18T01:34:49;6.10;89.70
77865;DHT22;67061;48.524;9.040;2023-03-18T01:37:16;6.10;89.20
77865;DHT22;67061;48.524;9.040;2023-03-18T01:39:44;6.10;89.70
77865;DHT22;67061;48.524;9.040;2023-03-18T01:42:12;6.10;90.70
77865;DHT22;67061;48.524;9.040;2023-03-18T01:44:42;6.10;90.60
77865;DHT22;67061;48.524;9.040;2023-03-18T01:47:11;6.20;90.20
77865;DHT22;67061;48.524;9.040;2023-03-18T01:49:40;6.20;90.60
77865;DHT22;67061;48.524;9.040;2023-03-18T01:52:12;6.20;90.00
77865;DHT22;67061;48.524;9.040;2023-03-18T01:54:43;6.20;90.20
77865;DHT22;67061;48.524;9.040;2023-03-18T01:57:14;6.30;90.40
77865;DHT22;67061;48.524;9.040;2023-03-18T01:59:42;6.30;90.20
77865;DHT22;67061;48.524;9.040;2023-03-18T02:02:13;6.20;89.90
77865;DHT22;67061;48.524;9.040;2023-03-18T02:04:44;6.10;90.70
77865;DHT22;67061;48.524;9.040;2023-03-18T02:07:14;6.00;91.30
77865;DHT22;67061;48.524;9.040;2023-03-18T02:09:41;6.00;91.50
77865;DHT22;67061;48.524;9.040;2023-03-18T02:12:09;6.00;91.30
77865;DHT22;67061;48.524;9.040;2023-03-18T02:14:38;5.90;91.60
77865;DHT22;67061;48.524;9.040;2023-03-18T02:17:09;5.70;91.90
77865;DHT22;67061;48.524;9.040;2023-03-18T02:19:49;5.70;92.20
77865;DHT22;67061;48.524;9.040;2023-03-18T02:22:25;5.70;91.30
77865;DHT22;67061;48.524;9.040;2023-03-18T02:25:05;5.60;91.90
77865;DHT22;67061;48.524;9.040;2023-03-18T02:27:39;5.60;91.80
77865;DHT22;67061;48.524;9.040;2023-03-18T02:30:10;5.50;92.50
77865;DHT22;67061;48.524;9.040;2023-03-18T02:32:39;5.50;92.50
77865;DHT22;67061;48.524;9.040;2023-03-18T02:35:09;5.50;92.30
77865;DHT22;67061;48.524;9.040;2023-03-18T02:37:36;5.50;92.20
77865;DHT22;67061;48.524;9.040;2023-03-18T02:40:17;5.50;92.80
77865;DHT22;67061;48.524;9.040;2023-03-18T02:42:46;5.60;92.90
77865;DHT22;67061;48.524;9.040;2023-03-18T02:45:23;5.80;92.00
77865;DHT22;67061;48.524;9.040;2023-03-18T02:47:58;5.90;89.80
77865;DHT22;67061;48.524;9.040;2023-03-18T02:50:27;6.00;89.40
77865;DHT22;67061;48.524;9.040;2023-03-18T02:52:54;6.00;89.60
77865;DHT22;67061;48.524;9.040;2023-03-18T02:55:21;6.00;89.30
77865;DHT22;67061;48.524;9.040;2023-03-18T02:57:50;6.00;89.00
77865;DHT22;67061;48.524;9.040;2023-03-18T03:00:17;6.20;87.30
77865;DHT22;67061;48.524;9.040;2023-03-18T03:02:44;6.20;87.40
77865;DHT22;67061;48.524;9.040;2023-03-18T03:05:11;6.20;86.90
77865;DHT22;67061;48.524;9.040;2023-03-18T03:07:38;6.10;87.40
77865;DHT22;67061;48.524;9.040;2023-03-18T03:10:06;6.10;87.70
77865;DHT22;67061;48.524;9.040;2023-03-18T03:12:34;6.00;87.90
77865;DHT22;67061;48.524;9.040;2023-03-18T03:15:05;5.90;88.70
77865;DHT22;67061;48.524;9.040;2023-03-18T03:17:32;5.90;88.90
77865;DHT22;67061;48.524;9.040;2023-03-18T03:20:00;5.80;89.40
77865;DHT22;67061;48.524;9.040;2023-03-18T03:22:28;5.80;89.30
77865;DHT22;67061;48.524;9.040;2023-03-18T03:24:55;5.70;89.80
77865;DHT22;67061;48.524;9.040;2023-03-18T03:27:22;5.60;90.30
77865;DHT22;67061;48.524;9.040;2023-03-18T03:29:48;5.60;90.80
77865;DHT22;67061;48.524;9.040;2023-03-18T03:32:17;5.50;91.00
77865;DHT22;67061;48.524;9.040;2023-03-18T03:34:44;5.50;91.10
77865;DHT22;67061;48.524;9.040;2023-03-18T03:37:12;5.50;90.50
77865;DHT22;67061;48.524;9.040;2023-03-18T03:39:39;5.40;90.60
77865;DHT22;67061;48.524;9.040;2023-03-18T03:42:06;5.30;91.20
77865;DHT22;67061;48.524;9.040;2023-03-18T03:44:33;5.30;92.00
77865;DHT22;67061;48.524;9.040;2023-03-18T03:47:01;5.30;92.30
77865;DHT22;67061;48.524;9.040;2023-03-18T03:49:29;5.30;92.20
77865;DHT22;67061;48.524;9.040;2023-03-18T03:51:56;5.20;92.40
77865;DHT22;67061;48.524;9.040;2023-03-18T03:54:24;5.10;92.00
77865;DHT22;67061;48.524;9.040;2023-03-18T03:56:51;5.00;93.20
77865;DHT22;67061;48.524;9.040;2023-03-18T03:59:18;5.00;92.50
77865;DHT22;67061;48.524;9.040;2023-03-18T04:01:45;5.00;92.90
77865;DHT22;67061;48.524;9.040;2023-03-18T04:04:12;5.00;93.20
77865;DHT22;67061;48.524;9.040;2023-03-18T04:06:41;4.90;93.70
77865;DHT22;67061;48.524;9.040;2023-03-18T04:09:08;4.90;94.00
77865;DHT22;67061;48.524;9.040;2023-03-18T04:11:35;4.90;94.20
77865;DHT22;67061;48.524;9.040;2023-03-18T04:14:02;4.90;93.70
77865;DHT22;67061;48.524;9.040;2023-03-18T04:16:29;4.90;93.90
77865;DHT22;67061;48.524;9.040;2023-03-18T04:18:57;4.80;94.30
77865;DHT22;67061;48.524;9.040;2023-03-18T04:21:23;4.70;94.10
77865;DHT22;67061;48.524;9.040;2023-03-18T04:23:52;4.70;94.50
77865;DHT22;67061;48.524;9.040;2023-03-18T04:26:18;4.70;93.90
77865;DHT22;67061;48.524;9.040;2023-03-18T04:28:45;4.70;94.70
77865;DHT22;67061;48.524;9.040;2023-03-18T04:31:12;4.70;95.00
77865;DHT22;67061;48.524;9.040;2023-03-18T04:33:40;4.60;95.10
77865;DHT22;67061;48.524;9.040;2023-03-18T04:36:08;4.60;95.00
77865;DHT22;67061;48.524;9.040;2023-03-18T04:38:35;4.50;95.40
77865;DHT22;67061;48.524;9.040;2023-03-18T04:41:04;4.50;95.80
77865;DHT22;67061;48.524;9.040;2023-03-18T04:43:32;4.50;95.60
77865;DHT22;67061;48.524;9.040;2023-03-18T04:45:59;4.40;95.40
77865;DHT22;67061;48.524;9.040;2023-03-18T04:48:26;4.40;95.30
77865;DHT22;67061;48.524;9.040;2023-03-18T04:50:53;4.20;95.60
77865;DHT22;67061;48.524;9.040;2023-03-18T04:53:20;4.20;95.90
77865;DHT22;67061;48.524;9.040;2023-03-18T04:55:47;4.10;95.80
77865;DHT22;67061;48.524;9.040;2023-03-18T04:58:16;4.00;96.20
77865;DHT22;67061;48.524;9.040;2023-03-18T05:00:43;3.90;96.70
77865;DHT22;67061;48.524;9.040;2023-03-18T05:03:10;3.90;97.00
77865;DHT22;67061;48.524;9.040;2023-03-18T05:05:37;3.90;96.80
77865;DHT22;67061;48.524;9.040;2023-03-18T05:08:05;3.80;96.90
77865;DHT22;67061;48.524;9.040;2023-03-18T05:10:32;3.70;97.20
77865;DHT22;67061;48.524;9.040;2023-03-18T05:12:59;3.70;97.00
77865;DHT22;67061;48.524;9.040;2023-03-18T05:15:28;3.70;97.30
77865;DHT22;67061;48.524;9.040;2023-03-18T05:17:54;3.60;97.30
77865;DHT22;67061;48.524;9.040;2023-03-18T05:20:22;3.60;97.40
77865;DHT22;67061;48.524;9.040;2023-03-18T05:22:49;3.50;97.70
77865;DHT22;67061;48.524;9.040;2023-03-18T05:25:17;3.50;98.20
77865;DHT22;67061;48.524;9.040;2023-03-18T05:27:44;3.50;98.40
77865;DHT22;67061;48.524;9.040;2023-03-18T05:30:12;3.40;98.00
77865;DHT22;67061;48.524;9.040;2023-03-18T05:32:41;3.30;98.00
77865;DHT22;67061;48.524;9.040;2023-03-18T05:35:09;3.30;98.40
77865;DHT22;67061;48.524;9.040;2023-03-18T05:37:36;3.20;98.90
77865;DHT22;67061;48.524;9.040;2023-03-18T05:40:04;3.20;99.20
77865;DHT22;67061;48.524;9.040;2023-03-18T05:42:34;3.10;99.00
77865;DHT22;67061;48.524;9.040;2023-03-18T05:45:02;3.10;99.10
77865;DHT22;67061;48.524;9.040;2023-03-18T05:47:29;3.10;99.30
77865;DHT22;67061;48.524;9.040;2023-03-18T05:49:58;3.10;99.40
77865;DHT22;67061;48.524;9.040;2023-03-18T05:52:26;3.10;99.50
77865;DHT22;67061;48.524;9.040;2023-03-18T05:54:53;3.00;99.40
77865;DHT22;67061;48.524;9.040;2023-03-18T05:57:20;2.90;99.40
77865;DHT22;67061;48.524;9.040;2023-03-18T05:59:47;3.00;99.70
77865;DHT22;67061;48.524;9.040;2023-03-18T06:02:14;2.90;99.70
77865;DHT22;67061;48.524;9.040;2023-03-18T06:04:41;2.90;99.80
77865;DHT22;67061;48.524;9.040;2023-03-18T06:07:09;2.80;99.90
77865;DHT22;67061;48.524;9.040;2023-03-18T06:09:38;2.80;99.90
77865;DHT22;67061;48.524;9.040;2023-03-18T06:12:05;2.90;99.90
77865;DHT22;67061;48.524;9.040;2023-03-18T06:14:32;2.90;99.90
77865;DHT22;67061;48.524;9.040;2023-03-18T06:16:59;2.90;99.90
77865;DHT22;67061;48.524;9.040;2023-03-18T06:19:26;2.90;99.90
77865;DHT22;67061;48.524;9.040;2023-03-18T06:21:55;2.80;99.90
77865;DHT22;67061;48.524;9.040;2023-03-18T06:24:23;2.80;99.90
77865;DHT22;67061;48.524;9.040;2023-03-18T06:26:50;2.80;99.90
77865;DHT22;67061;48.524;9.040;2023-03-18T06:29:17;2.80;99.90
77865;DHT22;67061;48.524;9.040;2023-03-18T06:31:44;2.90;99.90
77865;DHT22;67061;48.524;9.040;2023-03-18T06:34:11;3.00;99.90
77865;DHT22;67061;48.524;9.040;2023-03-18T06:36:38;3.00;99.90
77865;DHT22;67061;48.524;9.040;2023-03-18T06:39:06;3.00;99.90
77865;DHT22;67061;48.524;9.040;2023-03-18T06:41:34;3.00;99.90
77865;DHT22;67061;48.524;9.040;2023-03-18T06:44:01;3.00;99.70
77865;DHT22;67061;48.524;9.040;2023-03-18T06:46:28;3.00;99.30
77865;DHT22;67061;48.524;9.040;2023-03-18T06:48:55;3.00;99.40
77865;DHT22;67061;48.524;9.040;2023-03-18T06:51:22;3.10;99.60
77865;DHT22;67061;48.524;9.040;2023-03-18T06:53:50;3.10;99.40
77865;DHT22;67061;48.524;9.040;2023-03-18T06:56:17;3.30;99.10
77865;DHT22;67061;48.524;9.040;2023-03-18T06:58:45;3.30;99.20
77865;DHT22;67061;48.524;9.040;2023-03-18T07:01:12;3.30;99.30
77865;DHT22;67061;48.524;9.040;2023-03-18T07:03:39;3.40;99.30
77865;DHT22;67061;48.524;9.040;2023-03-18T07:06:07;3.50;98.80
77865;DHT22;67061;48.524;9.040;2023-03-18T07:08:34;3.60;98.60
77865;DHT22;67061;48.524;9.040;2023-03-18T07:11:02;3.70;98.20
77865;DHT22;67061;48.524;9.040;2023-03-18T07:13:29;3.80;97.70
77865;DHT22;67061;48.524;9.040;2023-03-18T07:15:58;3.90;97.40
77865;DHT22;67061;48.524;9.040;2023-03-18T07:18:28;4.00;96.80
77865;DHT22;67061;48.524;9.040;2023-03-18T07:20:55;4.10;96.50
77865;DHT22;67061;48.524;9.040;2023-03-18T07:23:22;4.20;96.20
77865;DHT22;67061;48.524;9.040;2023-03-18T07:25:49;4.30;95.50
77865;DHT22;67061;48.524;9.040;2023-03-18T07:28:16;4.50;94.60
77865;DHT22;67061;48.524;9.040;2023-03-18T07:30:42;4.50;94.30
77865;DHT22;67061;48.524;9.040;2023-03-18T07:33:11;4.70;93.20
77865;DHT22;67061;48.524;9.040;2023-03-18T07:35:38;4.80;92.70
77865;DHT22;67061;48.524;9.040;2023-03-18T07:38:06;5.00;91.70
77865;DHT22;67061;48.524;9.040;2023-03-18T07:40:34;5.10;90.40
77865;DHT22;67061;48.524;9.040;2023-03-18T07:43:01;5.50;88.70
77865;DHT22;67061;48.524;9.040;2023-03-18T07:45:28;5.70;87.80
77865;DHT22;67061;48.524;9.040;2023-03-18T07:47:55;5.80;87.00
77865;DHT22;67061;48.524;9.040;2023-03-18T07:50:23;6.00;86.60
77865;DHT22;67061;48.524;9.040;2023-03-18T07:52:50;6.20;85.60
77865;DHT22;67061;48.524;9.040;2023-03-18T07:55:17;6.30;84.60
77865;DHT22;67061;48.524;9.040;2023-03-18T07:57:45;6.50;82.60
77865;DHT22;67061;48.524;9.040;2023-03-18T08:00:13;6.70;82.70
77865;DHT22;67061;48.524;9.040;2023-03-18T08:02:40;6.70;83.00
77865;DHT22;67061;48.524;9.040;2023-03-18T08:05:08;6.90;82.80
77865;DHT22;67061;48.524;9.040;2023-03-18T08:07:36;7.00;82.70
77865;DHT22;67061;48.524;9.040;2023-03-18T08:10:04;7.20;81.70
77865;DHT22;67061;48.524;9.040;2023-03-18T08:12:31;7.40;80.80
77865;DHT22;67061;48.524;9.040;2023-03-18T08:14:58;7.50;79.60
77865;DHT22;67061;48.524;9.040;2023-03-18T08:17:25;7.60;78.50
77865;DHT22;67061;48.524;9.040;2023-03-18T08:19:52;7.80;77.70
77865;DHT22;67061;48.524;9.040;2023-03-18T08:22:19;8.00;76.90
77865;DHT22;67061;48.524;9.040;2023-03-18T08:24:48;8.10;76.30
77865;DHT22;67061;48.524;9.040;2023-03-18T08:27:14;8.20;76.70
77865;DHT22;67061;48.524;9.040;2023-03-18T08:29:41;8.30;76.50
77865;DHT22;67061;48.524;9.040;2023-03-18T08:32:10;8.40;76.30
77865;DHT22;67061;48.524;9.040;2023-03-18T08:34:37;8.60;75.60
77865;DHT22;67061;48.524;9.040;2023-03-18T08:37:04;8.80;74.50
77865;DHT22;67061;48.524;9.040;2023-03-18T08:39:32;9.20;71.00
77865;DHT22;67061;48.524;9.040;2023-03-18T08:42:01;9.40;69.40
77865;DHT22;67061;48.524;9.040;2023-03-18T08:44:28;9.40;71.20
77865;DHT22;67061;48.524;9.040;2023-03-18T08:46:55;9.40;69.40
77865;DHT22;67061;48.524;9.040;2023-03-18T08:49:23;9.60;67.40
77865;DHT22;67061;48.524;9.040;2023-03-18T08:51:50;10.00;67.10
77865;DHT22;67061;48.524;9.040;2023-03-18T08:54:17;10.10;67.50
77865;DHT22;67061;48.524;9.040;2023-03-18T08:56:44;10.40;65.00
77865;DHT22;67061;48.524;9.040;2023-03-18T08:59:13;10.70;63.60
77865;DHT22;67061;48.524;9.040;2023-03-18T09:01:40;10.80;63.90
77865;DHT22;67061;48.524;9.040;2023-03-18T09:04:07;11.00;62.80
77865;DHT22;67061;48.524;9.040;2023-03-18T09:06:34;11.10;62.40
77865;DHT22;67061;48.524;9.040;2023-03-18T09:09:01;11.10;61.90
77865;DHT22;67061;48.524;9.040;2023-03-18T09:11:28;11.40;60.40
77865;DHT22;67061;48.524;9.040;2023-03-18T09:13:55;11.50;60.20
77865;DHT22;67061;48.524;9.040;2023-03-18T09:16:23;11.70;60.20
77865;DHT22;67061;48.524;9.040;2023-03-18T09:18:50;11.70;61.10
77865;DHT22;67061;48.524;9.040;2023-03-18T09:21:17;11.90;57.80
77865;DHT22;67061;48.524;9.040;2023-03-18T09:23:44;12.00;56.80
77865;DHT22;67061;48.524;9.040;2023-03-18T09:26:11;12.20;56.60
77865;DHT22;67061;48.524;9.040;2023-03-18T09:28:39;12.30;56.60
77865;DHT22;67061;48.524;9.040;2023-03-18T09:31:06;12.40;56.10
77865;DHT22;67061;48.524;9.040;2023-03-18T09:33:35;12.50;54.50
77865;DHT22;67061;48.524;9.040;2023-03-18T09:36:02;12.80;52.00
77865;DHT22;67061;48.524;9.040;2023-03-18T09:38:30;13.00;50.80
77865;DHT22;67061;48.524;9.040;2023-03-18T09:41:03;13.30;50.90
77865;DHT22;67061;48.524;9.040;2023-03-18T09:46:20;13.50;48.20
77865;DHT22;67061;48.524;9.040;2023-03-18T09:49:14;13.50;48.20
77865;DHT22;67061;48.524;9.040;2023-03-18T09:51:52;13.50;47.50
77865;DHT22;67061;48.524;9.040;2023-03-18T09:54:29;13.60;48.70
77865;DHT22;67061;48.524;9.040;2023-03-18T09:56:58;13.60;47.30
77865;DHT22;67061;48.524;9.040;2023-03-18T09:59:31;13.70;47.00
77865;DHT22;67061;48.524;9.040;2023-03-18T10:02:04;13.80;47.30
77865;DHT22;67061;48.524;9.040;2023-03-18T10:04:38;13.90;47.30
77865;DHT22;67061;48.524;9.040;2023-03-18T10:07:12;14.00;46.40
77865;DHT22;67061;48.524;9.040;2023-03-18T10:09:43;14.10;47.20
77865;DHT22;67061;48.524;9.040;2023-03-18T10:12:16;14.10;46.60
77865;DHT22;67061;48.524;9.040;2023-03-18T10:14:48;14.20;46.50
77865;DHT22;67061;48.524;9.040;2023-03-18T10:17:19;14.30;45.90
77865;DHT22;67061;48.524;9.040;2023-03-18T10:19:52;14.30;46.60
77865;DHT22;67061;48.524;9.040;2023-03-18T10:22:45;14.40;46.40
77865;DHT22;67061;48.524;9.040;2023-03-18T10:25:19;14.40;46.20
77865;DHT22;67061;48.524;9.040;2023-03-18T10:27:59;14.60;45.80
77865;DHT22;67061;48.524;9.040;2023-03-18T10:30:34;14.80;45.80
77865;DHT22;67061;48.524;9.040;2023-03-18T10:33:12;14.90;44.70
77865;DHT22;67061;48.524;9.040;2023-03-18T10:35:47;15.00;44.10
77865;DHT22;67061;48.524;9.040;2023-03-18T10:38:18;15.00;43.80
77865;DHT22;67061;48.524;9.040;2023-03-18T10:40:47;15.20;44.40
77865;DHT22;67061;48.524;9.040;2023-03-18T10:43:16;15.20;43.50
77865;DHT22;67061;48.524;9.040;2023-03-18T10:45:45;15.40;42.10
77865;DHT22;67061;48.524;9.040;2023-03-18T10:48:19;15.40;42.50
77865;DHT22;67061;48.524;9.040;2023-03-18T10:50:54;15.50;42.10
77865;DHT22;67061;48.524;9.040;2023-03-18T10:53:26;15.50;42.10
77865;DHT22;67061;48.524;9.040;2023-03-18T10:55:57;15.50;42.50
77865;DHT22;67061;48.524;9.040;2023-03-18T10:58:29;15.60;41.30
77865;DHT22;67061;48.524;9.040;2023-03-18T11:00:56;15.70;41.50
77865;DHT22;67061;48.524;9.040;2023-03-18T11:03:26;15.70;41.00
77865;DHT22;67061;48.524;9.040;2023-03-18T11:05:57;15.80;41.00
77865;DHT22;67061;48.524;9.040;2023-03-18T11:08:36;16.00;40.70
77865;DHT22;67061;48.524;9.040;2023-03-18T11:11:15;16.00;40.80
77865;DHT22;67061;48.524;9.040;2023-03-18T11:13:47;16.20;40.40
77865;DHT22;67061;48.524;9.040;2023-03-18T11:16:27;16.40;39.20
77865;DHT22;67061;48.524;9.040;2023-03-18T11:18:56;16.40;39.20
77865;DHT22;67061;48.524;9.040;2023-03-18T11:21:25;16.60;39.50
77865;DHT22;67061;48.524;9.040;2023-03-18T11:23:58;16.50;39.50
77865;DHT22;67061;48.524;9.040;2023-03-18T11:26:48;16.40;39.40
77865;DHT22;67061;48.524;9.040;2023-03-18T11:29:21;16.80;39.20
77865;DHT22;67061;48.524;9.040;2023-03-18T11:31:50;16.90;39.50
77865;DHT22;67061;48.524;9.040;2023-03-18T11:34:19;17.20;37.90
77865;DHT22;67061;48.524;9.040;2023-03-18T11:36:54;17.50;38.20
77865;DHT22;67061;48.524;9.040;2023-03-18T11:39:24;17.70;37.70
77865;DHT22;67061;48.524;9.040;2023-03-18T11:41:52;17.80;35.40
77865;DHT22;67061;48.524;9.040;2023-03-18T11:44:25;18.00;37.00
77865;DHT22;67061;48.524;9.040;2023-03-18T11:46:56;17.90;37.10
77865;DHT22;67061;48.524;9.040;2023-03-18T11:49:26;18.10;37.40
77865;DHT22;67061;48.524;9.040;2023-03-18T11:52:00;18.40;35.40
77865;DHT22;67061;48.524;9.040;2023-03-18T11:54:50;18.20;36.30
77865;DHT22;67061;48.524;9.040;2023-03-18T11:57:26;18.30;35.70
77865;DHT22;67061;48.524;9.040;2023-03-18T12:00:09;18.50;36.60
77865;DHT22;67061;48.524;9.040;2023-03-18T12:03:07;19.20;33.90
77865;DHT22;67061;48.524;9.040;2023-03-18T12:05:52;19.50;33.00
77865;DHT22;67061;48.524;9.040;2023-03-18T12:08:30;20.40;31.70
77865;DHT22;67061;48.524;9.040;2023-03-18T12:11:07;20.70;31.50
77865;DHT22;67061;48.524;9.040;2023-03-18T12:13:46;20.60;31.40
77865;DHT22;67061;48.524;9.040;2023-03-18T12:16:20;21.10;30.70
77865;DHT22;67061;48.524;9.040;2023-03-18T12:19:04;21.30;30.40
77865;DHT22;67061;48.524;9.040;2023-03-18T12:21:51;21.50;29.00
77865;DHT22;67061;48.524;9.040;2023-03-18T12:24:52;21.50;29.40
77865;DHT22;67061;48.524;9.040;2023-03-18T12:27:28;22.30;28.30
77865;DHT22;67061;48.524;9.040;2023-03-18T12:30:18;23.00;28.30
77865;DHT22;67061;48.524;9.040;2023-03-18T12:32:54;22.90;27.80
77865;DHT22;67061;48.524;9.040;2023-03-18T12:35:34;22.60;27.20
77865;DHT22;67061;48.524;9.040;2023-03-18T12:38:36;23.00;26.90
77865;DHT22;67061;48.524;9.040;2023-03-18T12:41:09;23.40;26.50
77865;DHT22;67061;48.524;9.040;2023-03-18T12:43:50;22.90;26.50
77865;DHT22;67061;48.524;9.040;2023-03-18T12:46:24;22.30;27.70
77865;DHT22;67061;48.524;9.040;2023-03-18T12:48:57;22.60;27.50
77865;DHT22;67061;48.524;9.040;2023-03-18T12:51:29;22.40;28.70
77865;DHT22;67061;48.524;9.040;2023-03-18T12:54:06;22.60;27.90
77865;DHT22;67061;48.524;9.040;2023-03-18T12:56:40;22.70;27.10
77865;DHT22;67061;48.524;9.040;2023-03-18T12:59:15;22.80;27.10
77865;DHT22;67061;48.524;9.040;2023-03-18T13:01:49;22.60;26.70
77865;DHT22;67061;48.524;9.040;2023-03-18T13:04:21;22.10;28.10
77865;DHT22;67061;48.524;9.040;2023-03-18T13:06:53;21.70;27.80
77865;DHT22;67061;48.524;9.040;2023-03-18T13:09:25;21.30;28.30
77865;DHT22;67061;48.524;9.040;2023-03-18T13:12:03;21.10;28.70
77865;DHT22;67061;48.524;9.040;2023-03-18T13:14:42;20.90;28.90
77865;DHT22;67061;48.524;9.040;2023-03-18T13:17:12;21.10;29.60
77865;DHT22;67061;48.524;9.040;2023-03-18T13:19:44;21.10;29.80
77865;DHT22;67061;48.524;9.040;2023-03-18T13:22:31;21.10;30.00
77865;DHT22;67061;48.524;9.040;2023-03-18T13:25:06;21.50;29.10
77865;DHT22;67061;48.524;9.040;2023-03-18T13:27:51;21.60;29.00
77865;DHT22;67061;48.524;9.040;2023-03-18T13:30:29;21.60;28.90
77865;DHT22;67061;48.524;9.040;2023-03-18T13:33:47;21.90;28.20
77865;DHT22;67061;48.524;9.040;2023-03-18T13:36:31;22.00;28.30
77865;DHT22;67061;48.524;9.040;2023-03-18T13:39:16;22.00;29.00
77865;DHT22;67061;48.524;9.040;2023-03-18T13:41:59;21.70;29.10
77865;DHT22;67061;48.524;9.040;2023-03-18T13:44:36;21.90;28.20
77865;DHT22;67061;48.524;9.040;2023-03-18T13:47:05;21.80;29.00
77865;DHT22;67061;48.524;9.040;2023-03-18T13:49:36;21.60;29.60
77865;DHT22;67061;48.524;9.040;2023-03-18T13:52:04;21.50;29.00
77865;DHT22;67061;48.524;9.040;2023-03-18T13:54:46;21.00;29.80
77865;DHT22;67061;48.524;9.040;2023-03-18T13:57:30;20.90;30.10
77865;DHT22;67061;48.524;9.040;2023-03-18T14:00:30;21.00;29.70
77865;DHT22;67061;48.524;9.040;2023-03-18T14:03:12;20.70;29.40
77865;DHT22;67061;48.524;9.040;2023-03-18T14:05:40;20.50;30.20
77865;DHT22;67061;48.524;9.040;2023-03-18T14:08:33;20.30;30.40
77865;DHT22;67061;48.524;9.040;2023-03-18T14:14:37;20.40;31.60
77865;DHT22;67061;48.524;9.040;2023-03-18T14:17:17;20.00;30.50
77865;DHT22;67061;48.524;9.040;2023-03-18T14:19:48;19.50;31.50
77865;DHT22;67061;48.524;9.040;2023-03-18T14:22:24;19.30;32.60
77865;DHT22;67061;48.524;9.040;2023-03-18T14:25:09;19.30;32.80
77865;DHT22;67061;48.524;9.040;2023-03-18T14:27:44;19.10;32.70
77865;DHT22;67061;48.524;9.040;2023-03-18T14:30:44;19.20;33.60
77865;DHT22;67061;48.524;9.040;2023-03-18T14:36:44;19.20;32.20
77865;DHT22;67061;48.524;9.040;2023-03-18T14:39:15;19.10;32.80
77865;DHT22;67061;48.524;9.040;2023-03-18T14:41:45;19.20;33.30
77865;DHT22;67061;48.524;9.040;2023-03-18T14:44:20;19.10;32.50
77865;DHT22;67061;48.524;9.040;2023-03-18T14:46:53;19.00;32.70
77865;DHT22;67061;48.524;9.040;2023-03-18T14:49:36;18.90;33.60
77865;DHT22;67061;48.524;9.040;2023-03-18T14:52:15;18.80;33.10
77865;DHT22;67061;48.524;9.040;2023-03-18T14:54:47;18.60;33.50
77865;DHT22;67061;48.524;9.040;2023-03-18T14:57:15;18.70;33.30
77865;DHT22;67061;48.524;9.040;2023-03-18T14:59:43;18.70;33.50
77865;DHT22;67061;48.524;9.040;2023-03-18T15:02:20;18.60;33.70
77865;DHT22;67061;48.524;9.040;2023-03-18T15:04:55;18.60;33.90
77865;DHT22;67061;48.524;9.040;2023-03-18T15:07:31;18.70;33.60
77865;DHT22;67061;48.524;9.040;2023-03-18T15:10:01;18.60;33.80
77865;DHT22;67061;48.524;9.040;2023-03-18T15:12:29;18.70;33.60
77865;DHT22;67061;48.524;9.040;2023-03-18T15:14:56;18.60;33.90
77865;DHT22;67061;48.524;9.040;2023-03-18T15:17:24;18.60;34.20
77865;DHT22;67061;48.524;9.040;2023-03-18T15:19:56;18.60;34.40
77865;DHT22;67061;48.524;9.040;2023-03-18T15:22:25;18.70;33.70
77865;DHT22;67061;48.524;9.040;2023-03-18T15:24:58;18.70;33.20
77865;DHT22;67061;48.524;9.040;2023-03-18T15:27:27;18.70;32.70
77865;DHT22;67061;48.524;9.040;2023-03-18T15:29:56;18.60;33.00
77865;DHT22;67061;48.524;9.040;2023-03-18T15:32:25;18.50;32.90
77865;DHT22;67061;48.524;9.040;2023-03-18T15:34:54;18.50;33.00
77865;DHT22;67061;48.524;9.040;2023-03-18T15:37:33;18.30;32.90
77865;DHT22;67061;48.524;9.040;2023-03-18T15:40:15;18.20;33.20
77865;DHT22;67061;48.524;9.040;2023-03-18T15:42:43;18.10;33.30
77865;DHT22;67061;48.524;9.040;2023-03-18T15:45:17;18.10;33.40
77865;DHT22;67061;48.524;9.040;2023-03-18T15:47:46;18.20;33.40
77865;DHT22;67061;48.524;9.040;2023-03-18T15:50:24;18.20;32.90
77865;DHT22;67061;48.524;9.040;2023-03-18T15:53:03;18.20;33.70
77865;DHT22;67061;48.524;9.040;2023-03-18T15:55:34;18.10;33.30
77865;DHT22;67061;48.524;9.040;2023-03-18T15:58:04;18.10;33.20
77865;DHT22;67061;48.524;9.040;2023-03-18T16:00:32;18.10;33.60
77865;DHT22;67061;48.524;9.040;2023-03-18T16:02:59;18.10;33.20
77865;DHT22;67061;48.524;9.040;2023-03-18T16:05:27;18.00;33.50
77865;DHT22;67061;48.524;9.040;2023-03-18T16:07:54;18.00;33.40
77865;DHT22;67061;48.524;9.040;2023-03-18T16:10:24;18.00;34.10
77865;DHT22;67061;48.524;9.040;2023-03-18T16:12:55;18.00;34.10